Hovedside
METAR-TAF:

METAR-TAF

Lufthavner :

Tri-Cities Airport

Pasco, Washington, USA

breddegrad: 46-16-11N, lengdegrad: 119-07-00W, høyde over havet: 124 m

Gjeldene værobservasjon

Denne rapporten ble laget for 7 minutter siden, klokken 17:53 UTC
Vind 3 kt fra skiftende retning
Temperatur 15°C
Luftfuktighet 39%
Trykk 1021 hPa
Sikt: 16.1 km
Skyfri himmel

METAR: KPSC 091753Z VRB03KT 10SM CLR 15/01 A3014 RMK AO2 SLP206 T01500006 10156 20006 57012

Tid: 11:00 (18:00 UTC)

Varsel

Denne rapporten ble laget for 40 minutter siden, klokken 17:20 UTC
Varsel gyldig fra 09. klokken 18 UTC til 10. klokken 18 UTC
Vind 3 kt fra skiftende retning
Sikt: 10 km
Få skyer i en høyde av 25000 ft
Fra 10. klokken 1730 UTC
Vind 7 kt fra Vest
Sikt: 10 km
Spredte skyer i en høyde av 25000 ft

TAF: KPSC 091720Z 0918/1018 VRB03KT P6SM FEW250 FM101730 28007KT P6SM SCT250

Værobservasjoner og værvarsel for over 4000 flyplasser (METAR- og TAF-rapporter).

Tilgjengelige stasjoner er representert av de røde og gule prikkene på kartet.

Hold musepekeren over prikken for å se navnet på stasjonen.

Klikk så for å se værobservasjoner og -varsler.

For å forandre kartet kan du klikke på den grønne knappen med svart kryss for å zoome inn, på den grønne knappen med strek for å zoome ut, eller på de grønne pilene for å se tilstøtende kart.


METAR-TAF: